Time;durP1;ratioP1;P1;durP2;ratioP2;P2;SDS_P1;SDS_P2;PMS_P1;PMS_P2;Temp;Humidity;BMP_temperature;BMP_pressure;BME280_temperature;BME280_humidity;BME280_pressure;Samples;Min_cycle;Max_cycle;Signal;HPM_P1;HPM_P2
2022/03/03 00:00:31;;;;;;;63.88;31.88;;;;;;;;;;5055900;28;20052;-47
2022/03/03 00:02:57;;;;;;;58.38;31.33;;;;;;;;;;5056138;28;20025;-46
2022/03/03 00:05:25;;;;;;;58.40;32.53;;;;;;;;;;5056270;28;20025;-50
2022/03/03 00:07:51;;;;;;;68.95;37.97;;;;;;;;;;5056312;28;20092;-50
2022/03/03 00:10:17;;;;;;;60.40;35.08;;;;;;;;;;5056292;28;20029;-55
2022/03/03 00:12:43;;;;;;;50.33;30.70;;;;;;;;;;5055861;28;20107;-55
2022/03/03 00:15:10;;;;;;;57.70;31.75;;;;;;;;;;5055983;28;20021;-54
2022/03/03 00:17:36;;;;;;;54.83;30.05;;;;;;;;;;5055913;28;20444;-55
2022/03/03 00:20:03;;;;;;;49.58;29.92;;;;;;;;;;5055795;28;20041;-55
2022/03/03 00:22:29;;;;;;;53.97;29.00;;;;;;;;;;5055823;28;20459;-53
2022/03/03 00:24:55;;;;;;;48.72;28.75;;;;;;;;;;5055745;28;20036;-55
2022/03/03 00:27:21;;;;;;;46.08;26.05;;;;;;;;;;5055491;28;20040;-55
2022/03/03 00:29:47;;;;;;;52.30;30.00;;;;;;;;;;5055650;28;20112;-56
2022/03/03 00:32:13;;;;;;;53.80;28.92;;;;;;;;;;5055634;28;20614;-56
2022/03/03 00:34:39;;;;;;;60.58;32.03;;;;;;;;;;5055451;28;20037;-54
2022/03/03 00:37:05;;;;;;;67.20;36.03;;;;;;;;;;5055638;28;20025;-56
2022/03/03 00:39:31;;;;;;;60.78;34.10;;;;;;;;;;5055343;28;20499;-56
2022/03/03 00:41:58;;;;;;;60.05;32.28;;;;;;;;;;5055485;28;20029;-55
2022/03/03 00:44:24;;;;;;;63.40;34.83;;;;;;;;;;5055211;28;20071;-55
2022/03/03 00:46:50;;;;;;;61.83;33.42;;;;;;;;;;5055615;28;20029;-52
2022/03/03 00:49:16;;;;;;;60.03;31.50;;;;;;;;;;5055203;28;20036;-54
2022/03/03 00:51:46;;;;;;;59.20;31.50;;;;;;;;;;5053262;28;20440;-56
2022/03/03 00:54:12;;;;;;;55.95;30.65;;;;;;;;;;5055381;28;20029;-56
2022/03/03 00:56:39;;;;;;;54.97;31.42;;;;;;;;;;5053164;28;20395;-56
2022/03/03 00:59:05;;;;;;;61.88;35.08;;;;;;;;;;5055189;28;20033;-56
2022/03/03 01:01:31;;;;;;;57.40;30.85;;;;;;;;;;5054864;28;20452;-56
2022/03/03 01:03:57;;;;;;;59.90;32.00;;;;;;;;;;5054933;28;20388;-58
2022/03/03 01:06:23;;;;;;;57.95;32.10;;;;;;;;;;5055049;28;20045;-56
2022/03/03 01:08:49;;;;;;;58.08;31.77;;;;;;;;;;5054935;28;20048;-56
2022/03/03 01:11:17;;;;;;;59.92;32.42;;;;;;;;;;5054978;28;20070;-54
2022/03/03 01:13:43;;;;;;;53.83;31.30;;;;;;;;;;5037353;28;20033;-56
2022/03/03 01:16:09;;;;;;;59.08;33.15;;;;;;;;;;5054850;28;20075;-57
2022/03/03 01:18:35;;;;;;;57.83;32.97;;;;;;;;;;5054647;28;20025;-56
2022/03/03 01:21:01;;;;;;;58.78;32.42;;;;;;;;;;5054904;28;20022;-57
2022/03/03 01:23:28;;;;;;;58.58;31.70;;;;;;;;;;5054719;28;20036;-59
2022/03/03 01:25:54;;;;;;;54.83;30.10;;;;;;;;;;5054622;28;20120;-57
2022/03/03 01:28:20;;;;;;;57.80;31.17;;;;;;;;;;5054866;28;20044;-54
2022/03/03 01:30:49;;;;;;;57.28;32.63;;;;;;;;;;5053216;28;20096;-56
2022/03/03 01:33:15;;;;;;;52.67;30.10;;;;;;;;;;5054347;28;20036;-57
2022/03/03 01:35:41;;;;;;;66.05;35.38;;;;;;;;;;5054580;28;20029;-57
2022/03/03 01:38:07;;;;;;;72.45;38.50;;;;;;;;;;5054244;28;20020;-56
2022/03/03 01:40:34;;;;;;;61.33;34.13;;;;;;;;;;5054103;28;20033;-53
2022/03/03 01:43:00;;;;;;;60.28;34.28;;;;;;;;;;5054324;28;20166;-56
2022/03/03 01:45:26;;;;;;;60.00;32.45;;;;;;;;;;5054176;28;20029;-54
2022/03/03 01:47:52;;;;;;;57.53;32.60;;;;;;;;;;5054243;28;20091;-56
2022/03/03 01:50:21;;;;;;;63.15;33.97;;;;;;;;;;5054180;28;20028;-53
2022/03/03 01:52:47;;;;;;;51.42;30.08;;;;;;;;;;5054251;28;20035;-56
2022/03/03 01:55:13;;;;;;;54.25;31.17;;;;;;;;;;5054312;28;20079;-56
2022/03/03 01:57:42;;;;;;;49.58;27.83;;;;;;;;;;5051292;28;20071;-52
2022/03/03 02:00:09;;;;;;;50.28;29.88;;;;;;;;;;5053876;28;20029;-55
2022/03/03 02:02:35;;;;;;;51.28;29.10;;;;;;;;;;5052190;28;20036;-56
2022/03/03 02:05:01;;;;;;;59.13;31.10;;;;;;;;;;5053764;28;20033;-56
2022/03/03 02:07:27;;;;;;;49.70;29.00;;;;;;;;;;5053932;28;20028;-57
2022/03/03 02:09:53;;;;;;;55.80;30.83;;;;;;;;;;5051866;28;20137;-52
2022/03/03 02:12:19;;;;;;;55.58;31.35;;;;;;;;;;5053714;28;20088;-53
2022/03/03 02:14:49;;;;;;;52.83;29.30;;;;;;;;;;5053665;28;20025;-56
2022/03/03 02:17:16;;;;;;;54.25;29.42;;;;;;;;;;5053714;28;20031;-53
2022/03/03 02:19:43;;;;;;;51.28;29.23;;;;;;;;;;5053702;28;20127;-53
2022/03/03 02:22:09;;;;;;;52.78;29.77;;;;;;;;;;5054081;28;20044;-46
2022/03/03 02:24:35;;;;;;;55.22;30.23;;;;;;;;;;5053700;28;20021;-46
2022/03/03 02:27:02;;;;;;;50.53;27.88;;;;;;;;;;5053554;28;20052;-46
2022/03/03 02:29:32;;;;;;;50.05;29.27;;;;;;;;;;5053490;28;20500;-46
2022/03/03 02:31:59;;;;;;;53.05;28.50;;;;;;;;;;5053276;28;20029;-46
2022/03/03 02:34:27;;;;;;;56.42;30.73;;;;;;;;;;5053253;28;20029;-47
2022/03/03 02:36:55;;;;;;;51.78;29.05;;;;;;;;;;5053331;28;20027;-47
2022/03/03 02:39:22;;;;;;;49.58;28.95;;;;;;;;;;5053499;28;20485;-50
2022/03/03 02:41:48;;;;;;;47.42;28.27;;;;;;;;;;5053357;28;20470;-47
2022/03/03 02:44:14;;;;;;;51.38;28.80;;;;;;;;;;5053175;28;20025;-46
2022/03/03 02:46:40;;;;;;;47.97;27.30;;;;;;;;;;5051659;28;20040;-47
2022/03/03 02:49:08;;;;;;;46.00;27.83;;;;;;;;;;5053203;28;20032;-46
2022/03/03 02:51:34;;;;;;;39.10;25.67;;;;;;;;;;5053142;28;20068;-47
2022/03/03 02:54:00;;;;;;;47.03;27.95;;;;;;;;;;5052985;28;20025;-47
2022/03/03 02:56:27;;;;;;;45.83;26.88;;;;;;;;;;5053022;28;20070;-46
2022/03/03 02:58:53;;;;;;;47.78;27.73;;;;;;;;;;5052916;28;20421;-52
2022/03/03 03:01:19;;;;;;;44.25;25.50;;;;;;;;;;5052896;28;20056;-48
2022/03/03 03:03:45;;;;;;;44.53;26.23;;;;;;;;;;5052856;28;20484;-47
2022/03/03 03:06:17;;;;;;;47.83;26.17;;;;;;;;;;5052922;28;20029;-48
2022/03/03 03:08:43;;;;;;;49.78;26.88;;;;;;;;;;5056187;28;20029;-49
2022/03/03 03:11:09;;;;;;;48.20;27.02;;;;;;;;;;5059588;28;20021;-46
2022/03/03 03:13:35;;;;;;;50.60;27.17;;;;;;;;;;5059707;28;20103;-53
2022/03/03 03:16:01;;;;;;;49.55;26.25;;;;;;;;;;5059552;28;20028;-49
2022/03/03 03:18:27;;;;;;;41.58;24.42;;;;;;;;;;5059530;28;20024;-46
2022/03/03 03:20:53;;;;;;;43.05;24.77;;;;;;;;;;5059313;28;20481;-47
2022/03/03 03:23:20;;;;;;;45.80;25.17;;;;;;;;;;5059521;28;20100;-47
2022/03/03 03:25:47;;;;;;;43.83;25.50;;;;;;;;;;5059389;28;20173;-49
2022/03/03 03:28:14;;;;;;;42.97;25.30;;;;;;;;;;5059367;28;20028;-46
2022/03/03 03:30:41;;;;;;;41.17;24.80;;;;;;;;;;5059761;28;20028;-47
2022/03/03 03:33:10;;;;;;;46.78;25.67;;;;;;;;;;5059209;28;20462;-46
2022/03/03 03:35:36;;;;;;;45.17;25.13;;;;;;;;;;5059554;28;20036;-48
2022/03/03 03:38:03;;;;;;;41.13;24.73;;;;;;;;;;5059318;28;20024;-48
2022/03/03 03:40:29;;;;;;;48.00;25.90;;;;;;;;;;5059285;28;20511;-50
2022/03/03 03:42:55;;;;;;;45.40;25.38;;;;;;;;;;5059200;28;20074;-48
2022/03/03 03:45:21;;;;;;;44.53;25.98;;;;;;;;;;5059519;28;20104;-47
2022/03/03 03:47:50;;;;;;;43.20;24.55;;;;;;;;;;5059206;28;20021;-49
2022/03/03 03:50:16;;;;;;;47.28;24.23;;;;;;;;;;5059480;28;20481;-47
2022/03/03 03:52:42;;;;;;;44.20;24.33;;;;;;;;;;5059462;28;20082;-46
2022/03/03 03:55:10;;;;;;;44.65;24.52;;;;;;;;;;5059485;28;20423;-50
2022/03/03 03:57:36;;;;;;;48.67;24.48;;;;;;;;;;5059435;28;20071;-46
2022/03/03 04:00:05;;;;;;;47.42;24.05;;;;;;;;;;5059283;28;20047;-57
2022/03/03 04:02:31;;;;;;;40.63;22.45;;;;;;;;;;5058918;28;20037;-55
2022/03/03 04:04:57;;;;;;;38.05;22.85;;;;;;;;;;5059508;28;20051;-54
2022/03/03 04:07:23;;;;;;;41.80;22.92;;;;;;;;;;5059328;28;20025;-52
2022/03/03 04:09:49;;;;;;;40.63;23.25;;;;;;;;;;5059032;28;20385;-46
2022/03/03 04:12:15;;;;;;;35.38;22.08;;;;;;;;;;5059079;28;20025;-47
2022/03/03 04:14:41;;;;;;;44.28;23.60;;;;;;;;;;5059031;28;20025;-49
2022/03/03 04:17:07;;;;;;;40.47;22.00;;;;;;;;;;5059006;28;20032;-50
2022/03/03 04:19:33;;;;;;;37.65;22.90;;;;;;;;;;5057911;28;20025;-50
2022/03/03 04:21:59;;;;;;;41.50;22.40;;;;;;;;;;5055594;28;20032;-47
2022/03/03 04:24:26;;;;;;;35.08;21.67;;;;;;;;;;5055725;28;20027;-48
2022/03/03 04:26:53;;;;;;;41.03;23.70;;;;;;;;;;5054586;28;20108;-47
2022/03/03 04:29:19;;;;;;;39.75;22.75;;;;;;;;;;5055643;28;20436;-51
2022/03/03 04:31:45;;;;;;;44.05;22.85;;;;;;;;;;5055881;28;20029;-47
2022/03/03 04:34:12;;;;;;;38.10;22.13;;;;;;;;;;5055724;28;20021;-52
2022/03/03 04:36:38;;;;;;;42.47;23.80;;;;;;;;;;5055586;28;20485;-47
2022/03/03 04:39:04;;;;;;;39.72;23.35;;;;;;;;;;5055531;28;20025;-47
2022/03/03 04:41:30;;;;;;;45.97;25.13;;;;;;;;;;5055537;28;20021;-47
2022/03/03 04:43:56;;;;;;;41.88;24.25;;;;;;;;;;5055378;28;20025;-47
2022/03/03 04:46:22;;;;;;;49.38;26.02;;;;;;;;;;5055257;28;20077;-47
2022/03/03 04:48:48;;;;;;;45.90;25.65;;;;;;;;;;5055100;28;20024;-49
2022/03/03 04:51:14;;;;;;;51.67;26.58;;;;;;;;;;5055231;28;20025;-48
2022/03/03 04:53:40;;;;;;;56.67;28.20;;;;;;;;;;5055287;28;20096;-50
2022/03/03 04:56:06;;;;;;;62.75;33.38;;;;;;;;;;5055166;28;20021;-53
2022/03/03 04:58:33;;;;;;;56.45;31.50;;;;;;;;;;5055416;28;20075;-47
2022/03/03 05:00:59;;;;;;;70.60;35.28;;;;;;;;;;5054930;28;20052;-49
2022/03/03 05:03:25;;;;;;;62.10;33.22;;;;;;;;;;5054922;28;20392;-49
2022/03/03 05:05:51;;;;;;;65.43;33.83;;;;;;;;;;5055094;28;20025;-49
2022/03/03 05:08:17;;;;;;;62.45;30.15;;;;;;;;;;5054885;28;20017;-51
2022/03/03 05:10:45;;;;;;;50.42;27.67;;;;;;;;;;5055046;28;20052;-56
2022/03/03 05:13:12;;;;;;;75.53;35.42;;;;;;;;;;5054875;28;20035;-48
2022/03/03 05:15:38;;;;;;;71.38;34.42;;;;;;;;;;5054748;28;20346;-47
2022/03/03 05:18:04;;;;;;;60.55;32.47;;;;;;;;;;5054707;28;20071;-54
2022/03/03 05:20:31;;;;;;;63.90;33.08;;;;;;;;;;5054690;28;20041;-53
2022/03/03 05:22:57;;;;;;;54.65;28.20;;;;;;;;;;5054645;28;20029;-46
2022/03/03 05:25:23;;;;;;;53.42;31.00;;;;;;;;;;5054650;28;20028;-53
2022/03/03 05:27:50;;;;;;;69.53;34.55;;;;;;;;;;5054501;28;20067;-47
2022/03/03 05:30:16;;;;;;;69.50;37.22;;;;;;;;;;5054430;28;20033;-53
2022/03/03 05:32:43;;;;;;;72.22;39.08;;;;;;;;;;5053190;28;20025;-48
2022/03/03 05:35:10;;;;;;;75.28;38.45;;;;;;;;;;5054453;28;20025;-57
2022/03/03 05:37:36;;;;;;;72.30;37.38;;;;;;;;;;5054571;28;20017;-47
2022/03/03 05:40:02;;;;;;;67.45;35.47;;;;;;;;;;5054374;28;20473;-58
2022/03/03 05:42:29;;;;;;;64.78;33.08;;;;;;;;;;5054310;28;20021;-58
2022/03/03 05:44:55;;;;;;;62.53;34.00;;;;;;;;;;5054480;28;20045;-50
2022/03/03 05:47:25;;;;;;;59.50;32.00;;;;;;;;;;5054374;28;20029;-54
2022/03/03 05:49:54;;;;;;;73.40;35.85;;;;;;;;;;5054185;28;20515;-54
2022/03/03 05:52:20;;;;;;;63.30;32.72;;;;;;;;;;5054263;28;20018;-54
2022/03/03 05:54:46;;;;;;;55.97;32.38;;;;;;;;;;5053832;28;20083;-47
2022/03/03 05:57:19;;;;;;;50.20;29.00;;;;;;;;;;5054091;28;20021;-57
2022/03/03 05:59:47;;;;;;;51.03;28.02;;;;;;;;;;5053826;28;20025;-57
2022/03/03 06:02:14;;;;;;;60.00;32.45;;;;;;;;;;5053581;28;20079;-49
2022/03/03 06:04:40;;;;;;;67.55;32.03;;;;;;;;;;5054094;28;20123;-51
2022/03/03 06:07:07;;;;;;;60.28;31.98;;;;;;;;;;5053782;28;20499;-58
2022/03/03 06:09:35;;;;;;;55.45;28.48;;;;;;;;;;5053933;28;20036;-55
2022/03/03 06:12:06;;;;;;;61.30;28.77;;;;;;;;;;5053986;28;20476;-59
2022/03/03 06:14:32;;;;;;;;;;;;;;;;;;5054081;28;20147;-56
2022/03/03 06:16:59;;;;;;;55.88;28.75;;;;;;;;;;5053502;28;19904;-56
2022/03/03 06:19:26;;;;;;;46.63;27.00;;;;;;;;;;5053471;28;20047;-57
2022/03/03 06:21:56;;;;;;;56.10;31.17;;;;;;;;;;5053819;28;20032;-60
2022/03/03 06:24:23;;;;;;;67.50;36.90;;;;;;;;;;5053518;28;20048;-56
2022/03/03 06:26:49;;;;;;;79.28;38.80;;;;;;;;;;5053495;28;20027;-49
2022/03/03 06:29:15;;;;;;;84.55;44.08;;;;;;;;;;5053282;28;20021;-56
2022/03/03 06:31:41;;;;;;;83.95;42.00;;;;;;;;;;5053669;28;20460;-52
2022/03/03 06:34:10;;;;;;;77.13;43.50;;;;;;;;;;5053531;28;20029;-57
2022/03/03 06:36:38;;;;;;;65.15;33.53;;;;;;;;;;5053401;28;20021;-59
2022/03/03 06:39:04;;;;;;;63.67;31.27;;;;;;;;;;5053421;28;20017;-49
2022/03/03 06:41:30;;;;;;;56.70;28.95;;;;;;;;;;5052851;28;20036;-55
2022/03/03 06:43:57;;;;;;;49.65;27.88;;;;;;;;;;5052795;28;20025;-54
2022/03/03 06:46:23;;;;;;;46.28;26.60;;;;;;;;;;5053098;28;20443;-54
2022/03/03 06:48:49;;;;;;;47.38;26.38;;;;;;;;;;5053120;28;20025;-53
2022/03/03 06:51:17;;;;;;;42.78;25.50;;;;;;;;;;5053010;28;20017;-55
2022/03/03 06:53:47;;;;;;;44.00;23.90;;;;;;;;;;5053018;28;20079;-53
2022/03/03 06:56:13;;;;;;;44.30;24.65;;;;;;;;;;5053308;28;20393;-47
2022/03/03 06:58:40;;;;;;;42.13;24.02;;;;;;;;;;5052814;28;20485;-54
2022/03/03 07:01:07;;;;;;;39.83;22.80;;;;;;;;;;5052804;28;20080;-51
2022/03/03 07:03:33;;;;;;;42.67;24.40;;;;;;;;;;5053031;28;20496;-54
2022/03/03 07:06:00;;;;;;;42.13;23.30;;;;;;;;;;5053300;28;20029;-54
2022/03/03 07:08:26;;;;;;;42.45;24.17;;;;;;;;;;5052928;28;20047;-49
2022/03/03 07:10:53;;;;;;;46.72;27.67;;;;;;;;;;5051646;28;20528;-56
2022/03/03 07:13:19;;;;;;;54.17;29.17;;;;;;;;;;5052743;28;20021;-56
2022/03/03 07:15:48;;;;;;;58.58;30.48;;;;;;;;;;5052725;28;20037;-52
2022/03/03 07:18:17;;;;;;;63.60;35.80;;;;;;;;;;5052858;28;20484;-48
2022/03/03 07:20:54;;;;;;;54.75;33.97;;;;;;;;;;5052931;28;20167;-47
2022/03/03 07:23:40;;;;;;;61.40;34.97;;;;;;;;;;5052902;28;20071;-47
2022/03/03 07:26:08;;;;;;;49.65;27.95;;;;;;;;;;5052811;28;20021;-51
2022/03/03 07:28:34;;;;;;;42.83;24.92;;;;;;;;;;5052612;28;20024;-55
2022/03/03 07:31:04;;;;;;;42.00;24.58;;;;;;;;;;5052989;28;20025;-56
2022/03/03 07:33:38;;;;;;;36.15;22.70;;;;;;;;;;5052898;28;20052;-54
2022/03/03 07:36:07;;;;;;;39.75;23.92;;;;;;;;;;5052943;28;20158;-55
2022/03/03 07:38:35;;;;;;;39.90;24.58;;;;;;;;;;5053175;28;20032;-55
2022/03/03 07:41:02;;;;;;;40.28;24.10;;;;;;;;;;5052742;28;20381;-55
2022/03/03 07:43:31;;;;;;;36.55;23.02;;;;;;;;;;5052811;28;20380;-51
2022/03/03 07:45:57;;;;;;;39.72;22.88;;;;;;;;;;5052611;28;20503;-52
2022/03/03 07:48:24;;;;;;;34.35;22.42;;;;;;;;;;5052723;28;20028;-49
2022/03/03 07:50:50;;;;;;;32.10;21.55;;;;;;;;;;5052731;28;20029;-51
2022/03/03 07:53:19;;;;;;;30.67;21.10;;;;;;;;;;5052788;28;20067;-54
2022/03/03 07:55:53;;;;;;;35.25;21.58;;;;;;;;;;5054324;28;20025;-48
2022/03/03 07:58:21;;;;;;;35.40;21.52;;;;;;;;;;5056648;28;20029;-54
2022/03/03 08:00:51;;;;;;;37.72;24.52;;;;;;;;;;5055996;28;20091;-50
2022/03/03 08:03:18;;;;;;;36.60;23.42;;;;;;;;;;5056276;28;20481;-51
2022/03/03 08:05:46;;;;;;;38.33;22.42;;;;;;;;;;5056184;28;20033;-49
2022/03/03 08:08:14;;;;;;;32.08;22.20;;;;;;;;;;5056369;28;20021;-54
2022/03/03 08:10:41;;;;;;;38.65;24.02;;;;;;;;;;5056211;28;20043;-51
2022/03/03 08:13:10;;;;;;;40.38;25.05;;;;;;;;;;5056048;28;20537;-55
2022/03/03 08:15:38;;;;;;;42.47;26.67;;;;;;;;;;5056031;28;20029;-57
2022/03/03 08:18:05;;;;;;;42.13;27.75;;;;;;;;;;5055898;28;20109;-53
2022/03/03 08:20:33;;;;;;;46.08;27.25;;;;;;;;;;5055935;28;20039;-55
2022/03/03 08:23:00;;;;;;;47.35;27.92;;;;;;;;;;5055688;28;20025;-57
2022/03/03 08:25:26;;;;;;;50.70;28.45;;;;;;;;;;5055807;28;20021;-52
2022/03/03 08:27:54;;;;;;;42.92;24.65;;;;;;;;;;5055867;28;20025;-54
2022/03/03 08:30:20;;;;;;;46.63;25.70;;;;;;;;;;5055844;28;20040;-50
2022/03/03 08:32:49;;;;;;;42.33;25.30;;;;;;;;;;5055696;28;20112;-51
2022/03/03 08:35:20;;;;;;;37.53;22.83;;;;;;;;;;5055628;28;20036;-56
2022/03/03 08:38:07;;;;;;;36.17;21.50;;;;;;;;;;5055707;28;20025;-51
2022/03/03 08:40:34;;;;;;;34.58;21.08;;;;;;;;;;5055471;28;20048;-51
2022/03/03 08:43:02;;;;;;;38.88;23.75;;;;;;;;;;5055633;28;20388;-51
2022/03/03 08:45:29;;;;;;;38.50;23.08;;;;;;;;;;5055471;28;20028;-51
2022/03/03 08:47:56;;;;;;;41.47;24.30;;;;;;;;;;5055447;28;20044;-50
2022/03/03 08:50:27;;;;;;;39.72;25.08;;;;;;;;;;5054102;28;20508;-52
2022/03/03 08:52:53;;;;;;;39.28;25.25;;;;;;;;;;5055493;28;20383;-51
2022/03/03 08:55:22;;;;;;;38.83;24.20;;;;;;;;;;5053327;28;20033;-57
2022/03/03 08:57:48;;;;;;;40.10;23.17;;;;;;;;;;5055274;28;20025;-55
2022/03/03 09:00:14;;;;;;;35.90;22.02;;;;;;;;;;5054998;28;20036;-56
2022/03/03 09:02:40;;;;;;;35.45;21.98;;;;;;;;;;5055141;28;20029;-52
2022/03/03 09:05:09;;;;;;;35.75;22.25;;;;;;;;;;5054985;28;20064;-53
2022/03/03 09:07:35;;;;;;;35.45;21.85;;;;;;;;;;5054981;28;20017;-55
2022/03/03 09:10:02;;;;;;;38.75;21.20;;;;;;;;;;5055139;28;20028;-50
2022/03/03 09:12:28;;;;;;;32.50;20.35;;;;;;;;;;5055015;28;20424;-53
2022/03/03 09:14:56;;;;;;;35.83;20.67;;;;;;;;;;5055187;28;20361;-54
2022/03/03 09:17:25;;;;;;;36.75;22.27;;;;;;;;;;5054959;28;20100;-55
2022/03/03 09:19:53;;;;;;;35.00;22.40;;;;;;;;;;5054662;28;20013;-54
2022/03/03 09:22:19;;;;;;;37.90;23.02;;;;;;;;;;5054976;28;20033;-54
2022/03/03 09:24:45;;;;;;;34.67;22.73;;;;;;;;;;5054691;28;20060;-52
2022/03/03 09:27:16;;;;;;;37.15;23.48;;;;;;;;;;5054916;28;20060;-52
2022/03/03 09:29:42;;;;;;;42.00;25.07;;;;;;;;;;5055074;28;20039;-51
2022/03/03 09:32:09;;;;;;;36.17;22.45;;;;;;;;;;5054508;28;20043;-56
2022/03/03 09:34:36;;;;;;;38.70;22.38;;;;;;;;;;5054447;28;20025;-51
2022/03/03 09:37:02;;;;;;;37.50;23.08;;;;;;;;;;5054546;28;20031;-55
2022/03/03 09:39:28;;;;;;;37.03;22.98;;;;;;;;;;5054539;28;20017;-56
2022/03/03 09:41:54;;;;;;;37.30;22.50;;;;;;;;;;5054317;28;20481;-54
2022/03/03 09:44:27;;;;;;;38.17;23.02;;;;;;;;;;5054378;28;20032;-50
2022/03/03 09:46:54;;;;;;;32.83;20.77;;;;;;;;;;5054321;28;20481;-54
2022/03/03 09:49:21;;;;;;;29.95;21.13;;;;;;;;;;5054320;28;20025;-56
2022/03/03 09:51:50;;;;;;;37.35;22.42;;;;;;;;;;5054581;28;20033;-51
2022/03/03 09:54:17;;;;;;;39.13;23.48;;;;;;;;;;5054339;28;20032;-50
2022/03/03 09:56:45;;;;;;;35.53;22.55;;;;;;;;;;5054132;28;20166;-54
2022/03/03 09:59:12;;;;;;;39.13;23.88;;;;;;;;;;5054025;28;20138;-55
2022/03/03 10:01:38;;;;;;;44.17;23.65;;;;;;;;;;5053773;28;20053;-56
2022/03/03 10:04:17;;;;;;;39.72;24.42;;;;;;;;;;5053980;28;20496;-55
2022/03/03 10:06:43;;;;;;;39.10;24.40;;;;;;;;;;5053948;28;20492;-56
2022/03/03 10:09:10;;;;;;;41.30;23.77;;;;;;;;;;5053898;28;20096;-56
2022/03/03 10:12:00;;;;;;;39.83;23.27;;;;;;;;;;5054045;28;20469;-56
2022/03/03 10:14:27;;;;;;;43.42;22.85;;;;;;;;;;4992483;28;20055;-56
2022/03/03 10:16:53;;;;;;;38.63;22.58;;;;;;;;;;4992664;28;20169;-57
2022/03/03 10:19:19;;;;;;;38.42;24.50;;;;;;;;;;4991909;28;20038;-58
2022/03/03 10:21:46;;;;;;;35.33;22.95;;;;;;;;;;4992287;28;20046;-56
2022/03/03 10:24:24;;;;;;;37.78;22.88;;;;;;;;;;4992427;28;20030;-57
2022/03/03 10:27:02;;;;;;;35.53;21.45;;;;;;;;;;4992229;28;20034;-56
2022/03/03 10:29:28;;;;;;;42.83;23.55;;;;;;;;;;4992265;28;20071;-58
2022/03/03 10:31:55;;;;;;;40.45;21.63;;;;;;;;;;4992115;28;20093;-55
2022/03/03 10:34:31;;;;;;;35.47;21.60;;;;;;;;;;4992112;28;20522;-53
2022/03/03 10:36:57;;;;;;;32.40;20.95;;;;;;;;;;4991980;28;20034;-56
2022/03/03 10:39:23;;;;;;;35.83;20.60;;;;;;;;;;4992193;28;20462;-53
2022/03/03 10:41:54;;;;;;;33.20;20.58;;;;;;;;;;4991894;28;20041;-56
2022/03/03 10:44:32;;;;;;;33.45;21.40;;;;;;;;;;4992073;28;20428;-50
2022/03/03 10:47:01;;;;;;;32.28;21.02;;;;;;;;;;4991841;28;20101;-51
2022/03/03 10:49:27;;;;;;;39.58;22.02;;;;;;;;;;4991932;28;20022;-53
2022/03/03 10:51:54;;;;;;;34.63;20.83;;;;;;;;;;5034348;28;20045;-50
2022/03/03 10:54:20;;;;;;;32.05;20.35;;;;;;;;;;5053015;28;20028;-54
2022/03/03 10:56:47;;;;;;;35.83;22.00;;;;;;;;;;5053308;28;20410;-56
2022/03/03 10:59:26;;;;;;;34.17;21.88;;;;;;;;;;5053113;28;20025;-56
2022/03/03 11:01:53;;;;;;;34.42;21.90;;;;;;;;;;5052812;28;20091;-54
2022/03/03 11:04:20;;;;;;;38.53;21.35;;;;;;;;;;5052919;28;20025;-55
2022/03/03 11:06:52;;;;;;;40.50;22.45;;;;;;;;;;5052977;28;20447;-52
2022/03/03 11:09:19;;;;;;;36.47;21.90;;;;;;;;;;5053075;28;20025;-51
2022/03/03 11:11:46;;;;;;;34.50;19.38;;;;;;;;;;5052817;28;20031;-56
2022/03/03 11:14:12;;;;;;;33.97;19.83;;;;;;;;;;5052737;28;20071;-55
2022/03/03 11:16:41;;;;;;;33.05;21.08;;;;;;;;;;5052840;28;20021;-56
2022/03/03 11:19:08;;;;;;;34.72;21.73;;;;;;;;;;5052781;28;20033;-55
2022/03/03 11:21:37;;;;;;;35.58;21.38;;;;;;;;;;5051290;28;20481;-54
2022/03/03 11:24:03;;;;;;;44.35;20.95;;;;;;;;;;5053068;28;20028;-55
2022/03/03 11:26:34;;;;;;;30.35;20.00;;;;;;;;;;5052855;28;20031;-56
2022/03/03 11:29:06;;;;;;;37.22;21.10;;;;;;;;;;5053444;28;20017;-55
2022/03/03 11:31:33;;;;;;;35.75;21.80;;;;;;;;;;5056754;28;20029;-51
2022/03/03 11:34:18;;;;;;;34.78;20.80;;;;;;;;;;5056826;28;20548;-51
2022/03/03 11:36:47;;;;;;;34.13;21.80;;;;;;;;;;5056798;28;20025;-51
2022/03/03 11:39:32;;;;;;;33.75;21.77;;;;;;;;;;5055376;28;20393;-52
2022/03/03 11:42:15;;;;;;;39.17;21.55;;;;;;;;;;5056553;28;20033;-51
2022/03/03 11:44:41;;;;;;;36.20;22.65;;;;;;;;;;5056706;28;20021;-54
2022/03/03 11:47:22;;;;;;;37.13;22.23;;;;;;;;;;5056868;28;20388;-59
2022/03/03 11:50:17;;;;;;;37.55;23.90;;;;;;;;;;5056486;28;20079;-52
2022/03/03 11:52:45;;;;;;;28.88;20.65;;;;;;;;;;4995124;28;20121;-55
2022/03/03 11:55:26;;;;;;;38.60;21.90;;;;;;;;;;4995053;28;20513;-56
2022/03/03 11:57:52;;;;;;;;;;;;;;;;;;4995485;28;20038;-52
2022/03/03 12:00:21;;;;;;;32.28;20.25;;;;;;;;;;4994658;28;20396;-55
2022/03/03 12:02:54;;;;;;;34.63;20.80;;;;;;;;;;4994922;28;20417;-54
2022/03/03 12:05:29;;;;;;;33.08;20.60;;;;;;;;;;4994903;28;20034;-53
2022/03/03 12:08:17;;;;;;;40.92;22.77;;;;;;;;;;4994893;28;20034;-50
2022/03/03 12:11:16;;;;;;;37.92;22.30;;;;;;;;;;4987199;28;20462;-53
2022/03/03 12:13:51;;;;;;;40.92;21.13;;;;;;;;;;4936692;29;20044;-50
2022/03/03 12:16:36;;;;;;;34.08;21.10;;;;;;;;;;4936599;29;20114;-51
2022/03/03 12:19:04;;;;;;;35.20;21.08;;;;;;;;;;4936804;29;20032;-55
2022/03/03 12:21:32;;;;;;;39.25;23.70;;;;;;;;;;4936640;29;20075;-54
2022/03/03 12:24:28;;;;;;;30.90;21.42;;;;;;;;;;4936443;29;20069;-52
2022/03/03 12:26:58;;;;;;;38.20;23.30;;;;;;;;;;4934792;29;20044;-52
2022/03/03 12:29:40;;;;;;;45.03;25.65;;;;;;;;;;4970637;28;20034;-54
2022/03/03 12:32:25;;;;;;;38.08;22.45;;;;;;;;;;4994434;28;20459;-51
2022/03/03 12:35:03;;;;;;;45.35;22.02;;;;;;;;;;4994326;28;20022;-51
2022/03/03 12:37:31;;;;;;;43.45;23.10;;;;;;;;;;4994358;28;20396;-50
2022/03/03 12:40:00;;;;;;;33.55;22.25;;;;;;;;;;4994321;28;20101;-51
2022/03/03 12:42:27;;;;;;;35.35;21.27;;;;;;;;;;4993728;28;20042;-52
2022/03/03 12:45:07;;;;;;;32.65;22.58;;;;;;;;;;4994258;28;20097;-57
2022/03/03 12:47:34;;;;;;;33.83;21.85;;;;;;;;;;4994154;28;20538;-52
2022/03/03 12:50:03;;;;;;;36.60;21.50;;;;;;;;;;5040980;28;20044;-51
2022/03/03 12:52:30;;;;;;;33.70;21.55;;;;;;;;;;5055410;28;20112;-54
2022/03/03 12:54:58;;;;;;;34.67;21.67;;;;;;;;;;5055361;28;20387;-52
2022/03/03 12:57:31;;;;;;;36.95;22.13;;;;;;;;;;5055396;28;20024;-48
2022/03/03 12:59:59;;;;;;;36.83;20.70;;;;;;;;;;5055245;28;20041;-49
2022/03/03 13:02:25;;;;;;;41.83;21.00;;;;;;;;;;5054903;28;20056;-50
2022/03/03 13:04:51;;;;;;;40.20;23.15;;;;;;;;;;5055133;28;20075;-49
2022/03/03 13:07:17;;;;;;;24.85;17.58;;;;;;;;;;5054975;28;20472;-50
2022/03/03 13:09:56;;;;;;;30.05;19.33;;;;;;;;;;5055114;28;20020;-53
2022/03/03 13:12:22;;;;;;;31.35;19.60;;;;;;;;;;5055168;28;20017;-53
2022/03/03 13:14:55;;;;;;;37.50;22.27;;;;;;;;;;5054861;28;20066;-56
2022/03/03 13:17:21;;;;;;;34.42;21.15;;;;;;;;;;5054772;28;20021;-56
2022/03/03 13:19:48;;;;;;;30.40;18.95;;;;;;;;;;5055020;28;20385;-49
2022/03/03 13:22:14;;;;;;;32.85;19.90;;;;;;;;;;5054696;28;20032;-48
2022/03/03 13:24:40;;;;;;;30.55;20.02;;;;;;;;;;5054850;28;20021;-55
2022/03/03 13:27:06;;;;;;;33.15;19.67;;;;;;;;;;5054765;28;20025;-48
2022/03/03 13:29:36;;;;;;;31.52;18.95;;;;;;;;;;5054609;28;20047;-48
2022/03/03 13:32:10;;;;;;;29.45;19.20;;;;;;;;;;5054566;28;20037;-55
2022/03/03 13:34:38;;;;;;;28.73;19.23;;;;;;;;;;5054637;28;20036;-57
2022/03/03 13:37:13;;;;;;;36.85;20.13;;;;;;;;;;5054539;28;20033;-57
2022/03/03 13:39:39;;;;;;;29.88;19.20;;;;;;;;;;5054546;28;20021;-55
2022/03/03 13:42:16;;;;;;;29.27;19.58;;;;;;;;;;5054474;28;20036;-58
2022/03/03 13:44:48;;;;;;;31.67;21.13;;;;;;;;;;5054309;28;20021;-53
2022/03/03 13:47:14;;;;;;;31.02;18.83;;;;;;;;;;5054292;28;20021;-57
2022/03/03 13:49:42;;;;;;;34.75;18.65;;;;;;;;;;5054222;28;20036;-57
2022/03/03 13:52:10;;;;;;;29.08;18.25;;;;;;;;;;5053937;28;20021;-57
2022/03/03 13:54:54;;;;;;;34.80;19.92;;;;;;;;;;5053513;28;20021;-59
2022/03/03 13:57:37;;;;;;;34.67;19.52;;;;;;;;;;5054322;28;20050;-58
2022/03/03 14:00:10;;;;;;;27.23;17.65;;;;;;;;;;5054017;28;20100;-52
2022/03/03 14:02:36;;;;;;;35.97;18.58;;;;;;;;;;5053948;28;20382;-57
2022/03/03 14:05:06;;;;;;;34.47;18.40;;;;;;;;;;5054031;28;20021;-56
2022/03/03 14:07:34;;;;;;;37.35;21.13;;;;;;;;;;5053837;28;20040;-56
2022/03/03 14:10:04;;;;;;;45.60;22.60;;;;;;;;;;5053806;28;20028;-56
2022/03/03 14:12:31;;;;;;;32.50;19.08;;;;;;;;;;5053831;28;20025;-59
2022/03/03 14:14:57;;;;;;;34.35;20.25;;;;;;;;;;5053897;28;20033;-56
2022/03/03 14:17:23;;;;;;;33.47;20.17;;;;;;;;;;5053954;28;20369;-55
2022/03/03 14:19:49;;;;;;;32.88;20.83;;;;;;;;;;5044799;28;20028;-49
2022/03/03 14:22:19;;;;;;;35.47;20.35;;;;;;;;;;5041118;28;20550;-50
2022/03/03 14:24:46;;;;;;;36.00;21.25;;;;;;;;;;5041474;28;20141;-50